Wednesday, June 20, 2018, 6:37 PM EDT
Back to Local

KFKL, Franklin, Venango Regional Airport

Location: Franklin, PA, United States Lat: 41.383
Local Time: 6:37 PM EDT (22:37 GMT) Lon: -79.867
Time Zone: US/Eastern Elev: 1538 ft

Show me the last for .
Show Decoded

2018-06-20 18:12 METAR KFKL 202212Z AUTO 03005KT 9SM -RA SCT004 BKN010 OVC016 18/17 A2985 RMK AO2
                 CIG 009V013 P0001 =
2018-06-20 17:56 METAR KFKL 202156Z AUTO 04006KT 3SM -RA BR BKN004 OVC008 18/17 A2985 RMK AO2
                 RAE2057B26 SLP105 P0002 T01830172 =
2018-06-20 17:41 METAR KFKL 202141Z AUTO 02007KT 3SM -RA BR BKN004 OVC009 18/18 A2985 RMK AO2
                 RAE2057B26 CIG 003V009 P0001 =
2018-06-20 17:36 METAR KFKL 202136Z AUTO 01006KT 4SM -RA BR SCT004 OVC011 18/18 A2985 RMK AO2
                 RAE2057B26 CIG 008V011 P0000 =
2018-06-20 16:56 METAR KFKL 202056Z AUTO 02005KT 10SM -RA BKN007 OVC015 19/19 A2985 RMK AO2 RAB37
                 CIG 003V010 SLP103 P0000 60006 T01940189 56005 =
2018-06-20 16:43 METAR KFKL 202043Z AUTO VRB03KT 6SM -RA BR BKN007 OVC015 19/19 A2985 RMK AO2
                 RAB37 CIG 003V010 P0000 =
2018-06-20 16:36 METAR KFKL 202036Z AUTO 02004KT 9SM SCT007 OVC017 20/18 A2985 RMK AO2 =
2018-06-20 16:26 METAR KFKL 202026Z AUTO 03006KT 10SM BKN007 BKN013 OVC021 20/18 A2985 RMK AO2 =
2018-06-20 16:06 METAR KFKL 202006Z AUTO 07004KT 10SM FEW006 SCT013 OVC021 21/18 A2985 RMK AO2 =
2018-06-20 15:56 METAR KFKL 201956Z AUTO VRB05KT 10SM SCT006 BKN013 OVC021 21/19 A2985 RMK AO2
                 SLP102 T02060189 =
2018-06-20 15:54 METAR KFKL 201954Z AUTO 03005KT 10SM SCT006 BKN013 OVC021 21/19 A2985 RMK AO2 =
2018-06-20 15:20 METAR KFKL 201920Z AUTO 01004KT 10SM BKN006 OVC010 19/18 A2986 RMK AO2 CIG
                 004V009 =
2018-06-20 15:08 METAR KFKL 201908Z AUTO VRB04KT 10SM FEW006 BKN012 OVC025 20/18 A2987 RMK AO2 =
2018-06-20 14:56 METAR KFKL 201856Z AUTO 00000KT 10SM FEW006 OVC025 20/18 A2986 RMK AO2 RAB02E36
                 SLP107 P0006 T02000183 =
2018-06-20 14:27 METAR KFKL 201827Z AUTO 08003KT 10SM -RA FEW011 BKN027 19/18 A2987 RMK AO2 RAB02
                 P0006 =
2018-06-20 14:20 METAR KFKL 201820Z AUTO 00000KT 2SM -RA BR FEW011 BKN027 OVC043 19/17 A2988 RMK
                 AO2 VIS 3/4V5 RAB02 P0006 =
2018-06-20 13:56 METAR KFKL 201756Z AUTO VRB03KT 10SM OVC029 20/17 A2988 RMK AO2 RAB33E46 SLP113
                 P0000 60018 T02000172 10200 20167 58010 =
2018-06-20 13:26 METAR KFKL 201726Z AUTO 08004KT 10SM FEW008 BKN029 BKN060 19/17 A2988 RMK AO2 =
2018-06-20 12:56 METAR KFKL 201656Z AUTO 09004KT 10SM FEW110 19/17 A2989 RMK AO2 RAE32 SLP115
                 P0008 T01890167 =
2018-06-20 11:56 METAR KFKL 201556Z AUTO 01005KT 7SM -RA SCT004 OVC035 17/16 A2993 RMK AO2 SLP130
                 P0010 T01720161 =
2018-06-20 11:32 METAR KFKL 201532Z AUTO 34003KT 8SM RA FEW006 OVC032 18/17 A2992 RMK AO2 P0004 =
2018-06-20 10:56 METAR KFKL 201456Z AUTO 00000KT 10SM -RA OVC034 19/17 A2991 RMK AO2 RAB02 SLP123
                 P0000 60000 T01890172 58006 =
2018-06-20 10:13 METAR KFKL 201413Z AUTO 26004KT 10SM -RA SCT028 OVC038 20/17 A2992 RMK AO2 RAB02
                 P0000 =
2018-06-20 09:56 METAR KFKL 201356Z AUTO 00000KT 10SM BKN026 OVC048 20/16 A2992 RMK AO2 SLP124
                 T02000161 =
2018-06-20 08:56 METAR KFKL 201256Z AUTO 07004KT 10SM OVC050 19/16 A2992 RMK AO2 SLP126 T01890156
                 =
2018-06-20 07:56 METAR KFKL 201156Z AUTO 09003KT 10SM BKN050 OVC065 17/16 A2993 RMK AO2 SLP128
                 7//// T01720156 10172 20156 56001 =
2018-06-20 06:56 METAR KFKL 201056Z AUTO 00000KT 10SM OVC050 16/16 A2993 RMK AO2 SLP128 T01610156
                 =
2018-06-20 05:56 METAR KFKL 200956Z AUTO 00000KT 10SM CLR 16/15 A2993 RMK AO2 SLP128 T01560150 =
2018-06-20 04:56 METAR KFKL 200856Z AUTO 00000KT 10SM BKN065 BKN090 16/15 A2993 RMK AO2 SLP129
                 T01560150 58005 =
2018-06-20 03:56 METAR KFKL 200756Z AUTO 04003KT 10SM FEW090 16/14 A2993 RMK AO2 SLP130 T01560144
                 =
2018-06-20 02:56 METAR KFKL 200656Z AUTO 00000KT 10SM OVC085 16/15 A2995 RMK AO2 SLP135 T01610150
                 =
2018-06-20 01:56 METAR KFKL 200556Z AUTO 02004KT 10SM CLR 16/14 A2995 RMK AO2 SLP134 6////
                 T01560144 10211 20156 56009 =
2018-06-20 00:56 METAR KFKL 200456Z AUTO 06003KT 10SM CLR 17/15 A2995 RMK AO2 SLP136 T01720150
                 402560167 =
2018-06-19 23:56 METAR KFKL 200356Z AUTO 03004KT 10SM CLR 17/15 A2996 RMK AO2 SLP140 T01720150 =
2018-06-19 22:56 METAR KFKL 200256Z AUTO 01005KT 10SM SCT110 18/15 A2998 RMK AO2 SLP144 T01830150
                 51005 =
2018-06-19 21:56 METAR KFKL 200156Z AUTO 00000KT 10SM CLR 19/15 A2998 RMK AO2 SLP145 T01890150 =
2018-06-19 20:56 METAR KFKL 200056Z AUTO 00000KT 10SM FEW120 21/15 A2997 RMK AO2 SLP141 T02060150
                 =
2018-06-19 19:56 METAR KFKL 192356Z AUTO 00000KT 10SM CLR 21/15 A2996 RMK AO2 SLP138 T02110150
                 10256 20211 56003 =
2018-06-19 18:56 METAR KFKL 192256Z AUTO 35003KT 10SM SCT110 23/15 A2996 RMK AO2 SLP137 T02330150
                 =

Support USWX by starting your Amazon purchase here.